sensor_id;sensor_type;location;lat;lon;timestamp;pressure;altitude;pressure_sealevel;temperature;humidity
12077;BME280;12420;42.676;23.262;2023-05-23T00:01:46;94460.91;;;13.80;100.00
12077;BME280;12420;42.676;23.262;2023-05-23T00:04:13;94449.22;;;13.74;100.00
12077;BME280;12420;42.676;23.262;2023-05-23T00:06:43;94442.50;;;13.62;100.00
12077;BME280;12420;42.676;23.262;2023-05-23T00:09:12;94428.19;;;13.50;100.00
12077;BME280;12420;42.676;23.262;2023-05-23T00:11:38;94441.16;;;13.48;100.00
12077;BME280;12420;42.676;23.262;2023-05-23T00:14:09;94442.66;;;13.49;100.00
12077;BME280;12420;42.676;23.262;2023-05-23T00:16:39;94445.25;;;13.46;100.00
12077;BME280;12420;42.676;23.262;2023-05-23T00:19:09;94442.47;;;13.46;100.00
12077;BME280;12420;42.676;23.262;2023-05-23T00:21:36;94442.63;;;13.41;100.00
12077;BME280;12420;42.676;23.262;2023-05-23T00:24:03;94438.94;;;13.46;100.00
12077;BME280;12420;42.676;23.262;2023-05-23T00:26:30;94435.59;;;13.48;100.00
12077;BME280;12420;42.676;23.262;2023-05-23T00:28:58;94438.38;;;13.48;100.00
12077;BME280;12420;42.676;23.262;2023-05-23T00:31:25;94434.13;;;13.46;100.00
12077;BME280;12420;42.676;23.262;2023-05-23T00:33:52;94438.19;;;13.45;100.00
12077;BME280;12420;42.676;23.262;2023-05-23T00:36:20;94448.03;;;13.46;100.00
12077;BME280;12420;42.676;23.262;2023-05-23T00:38:48;94442.66;;;13.49;100.00
12077;BME280;12420;42.676;23.262;2023-05-23T00:41:15;94437.44;;;13.45;100.00
12077;BME280;12420;42.676;23.262;2023-05-23T00:43:42;94446.91;;;13.50;100.00
12077;BME280;12420;42.676;23.262;2023-05-23T00:46:09;94450.59;;;13.44;100.00
12077;BME280;12420;42.676;23.262;2023-05-23T00:48:36;94405.66;;;13.25;100.00
12077;BME280;12420;42.676;23.262;2023-05-23T00:51:06;94436.34;;;13.48;100.00
12077;BME280;12420;42.676;23.262;2023-05-23T00:53:34;94444.84;;;13.42;100.00
12077;BME280;12420;42.676;23.262;2023-05-23T00:56:02;94445.97;;;13.39;100.00
12077;BME280;12420;42.676;23.262;2023-05-23T00:58:29;94440.19;;;13.37;100.00
12077;BME280;12420;42.676;23.262;2023-05-23T01:00:56;94426.22;;;13.22;100.00
12077;BME280;12420;42.676;23.262;2023-05-23T01:03:24;94445.19;;;13.31;100.00
12077;BME280;12420;42.676;23.262;2023-05-23T01:05:53;94447.56;;;13.27;100.00
12077;BME280;12420;42.676;23.262;2023-05-23T01:08:20;94440.84;;;13.22;100.00
12077;BME280;12420;42.676;23.262;2023-05-23T01:10:49;94444.78;;;13.27;100.00
12077;BME280;12420;42.676;23.262;2023-05-23T01:13:38;94424.09;;;13.07;100.00
12077;BME280;12420;42.676;23.262;2023-05-23T01:16:08;94444.00;;;13.19;100.00
12077;BME280;12420;42.676;23.262;2023-05-23T01:18:37;94440.13;;;13.22;100.00
12077;BME280;12420;42.676;23.262;2023-05-23T01:21:10;94446.97;;;13.21;100.00
12077;BME280;12420;42.676;23.262;2023-05-23T01:23:54;94447.91;;;13.23;100.00
12077;BME280;12420;42.676;23.262;2023-05-23T01:26:31;94442.56;;;13.25;100.00
12077;BME280;12420;42.676;23.262;2023-05-23T01:29:05;94446.28;;;13.28;100.00
12077;BME280;12420;42.676;23.262;2023-05-23T01:31:35;94446.84;;;13.27;100.00
12077;BME280;12420;42.676;23.262;2023-05-23T01:34:03;94435.09;;;13.13;100.00
12077;BME280;12420;42.676;23.262;2023-05-23T01:36:32;94433.09;;;13.21;100.00
12077;BME280;12420;42.676;23.262;2023-05-23T01:38:59;94433.03;;;13.13;100.00
12077;BME280;12420;42.676;23.262;2023-05-23T01:41:26;94432.09;;;13.11;100.00
12077;BME280;12420;42.676;23.262;2023-05-23T01:43:54;94441.72;;;13.10;100.00
12077;BME280;12420;42.676;23.262;2023-05-23T01:46:22;94441.34;;;13.06;100.00
12077;BME280;12420;42.676;23.262;2023-05-23T01:48:49;94429.84;;;13.01;100.00
12077;BME280;12420;42.676;23.262;2023-05-23T01:51:16;94424.19;;;12.86;100.00
12077;BME280;12420;42.676;23.262;2023-05-23T01:53:43;94428.38;;;13.08;100.00
12077;BME280;12420;42.676;23.262;2023-05-23T01:56:10;94433.16;;;13.00;100.00
12077;BME280;12420;42.676;23.262;2023-05-23T01:58:37;94422.31;;;12.81;100.00
12077;BME280;12420;42.676;23.262;2023-05-23T02:01:04;94424.16;;;12.78;100.00
12077;BME280;12420;42.676;23.262;2023-05-23T02:03:33;94400.00;;;12.66;100.00
12077;BME280;12420;42.676;23.262;2023-05-23T02:05:59;94427.34;;;12.82;100.00
12077;BME280;12420;42.676;23.262;2023-05-23T02:08:26;94432.31;;;12.84;100.00
12077;BME280;12420;42.676;23.262;2023-05-23T02:10:53;94420.81;;;12.72;100.00
12077;BME280;12420;42.676;23.262;2023-05-23T02:13:19;94431.13;;;12.72;100.00
12077;BME280;12420;42.676;23.262;2023-05-23T02:15:46;94432.66;;;12.73;100.00
12077;BME280;12420;42.676;23.262;2023-05-23T02:18:13;94438.56;;;12.77;100.00
12077;BME280;12420;42.676;23.262;2023-05-23T02:20:41;94439.69;;;12.74;100.00
12077;BME280;12420;42.676;23.262;2023-05-23T02:23:09;94439.09;;;12.68;100.00
12077;BME280;12420;42.676;23.262;2023-05-23T02:25:36;94435.56;;;12.67;100.00
12077;BME280;12420;42.676;23.262;2023-05-23T02:28:03;94426.69;;;12.69;100.00
12077;BME280;12420;42.676;23.262;2023-05-23T02:30:30;94423.41;;;12.78;100.00
12077;BME280;12420;42.676;23.262;2023-05-23T02:32:56;94428.97;;;12.78;100.00
12077;BME280;12420;42.676;23.262;2023-05-23T02:35:25;94421.53;;;12.73;100.00
12077;BME280;12420;42.676;23.262;2023-05-23T02:37:53;94424.69;;;12.77;100.00
12077;BME280;12420;42.676;23.262;2023-05-23T02:40:20;94424.50;;;12.75;100.00
12077;BME280;12420;42.676;23.262;2023-05-23T02:42:47;94413.78;;;12.79;100.00
12077;BME280;12420;42.676;23.262;2023-05-23T02:45:15;94418.19;;;12.74;100.00
12077;BME280;12420;42.676;23.262;2023-05-23T02:47:42;94409.09;;;12.66;100.00
12077;BME280;12420;42.676;23.262;2023-05-23T02:50:09;94417.09;;;12.70;100.00
12077;BME280;12420;42.676;23.262;2023-05-23T02:52:36;94423.31;;;12.63;100.00
12077;BME280;12420;42.676;23.262;2023-05-23T02:55:07;94427.38;;;12.62;100.00
12077;BME280;12420;42.676;23.262;2023-05-23T02:57:34;94423.06;;;12.53;100.00
12077;BME280;12420;42.676;23.262;2023-05-23T03:00:00;94423.97;;;12.48;100.00
12077;BME280;12420;42.676;23.262;2023-05-23T03:02:27;94431.09;;;12.35;100.00
12077;BME280;12420;42.676;23.262;2023-05-23T03:04:54;94430.50;;;12.29;100.00
12077;BME280;12420;42.676;23.262;2023-05-23T03:07:21;94428.25;;;12.28;100.00
12077;BME280;12420;42.676;23.262;2023-05-23T03:09:48;94420.28;;;12.24;100.00
12077;BME280;12420;42.676;23.262;2023-05-23T03:12:16;94427.03;;;12.36;100.00
12077;BME280;12420;42.676;23.262;2023-05-23T03:14:43;94423.91;;;12.40;100.00
12077;BME280;12420;42.676;23.262;2023-05-23T03:17:12;94431.09;;;12.35;100.00
12077;BME280;12420;42.676;23.262;2023-05-23T03:19:39;94403.75;;;12.19;100.00
12077;BME280;12420;42.676;23.262;2023-05-23T03:22:05;94435.22;;;12.42;100.00
12077;BME280;12420;42.676;23.262;2023-05-23T03:24:32;94406.84;;;12.36;100.00
12077;BME280;12420;42.676;23.262;2023-05-23T03:26:59;94435.13;;;12.55;100.00
12077;BME280;12420;42.676;23.262;2023-05-23T03:29:28;94439.56;;;12.58;100.00
12077;BME280;12420;42.676;23.262;2023-05-23T03:31:55;94427.56;;;12.64;100.00
12077;BME280;12420;42.676;23.262;2023-05-23T03:34:22;94439.03;;;12.60;100.00
12077;BME280;12420;42.676;23.262;2023-05-23T03:36:50;94439.56;;;12.58;100.00
12077;BME280;12420;42.676;23.262;2023-05-23T03:39:17;94439.25;;;12.62;100.00
12077;BME280;12420;42.676;23.262;2023-05-23T03:41:44;94446.28;;;12.63;100.00
12077;BME280;12420;42.676;23.262;2023-05-23T03:44:11;94442.34;;;12.58;100.00
12077;BME280;12420;42.676;23.262;2023-05-23T03:46:40;94448.56;;;12.72;100.00
12077;BME280;12420;42.676;23.262;2023-05-23T03:49:07;94444.22;;;12.92;100.00
12077;BME280;12420;42.676;23.262;2023-05-23T03:51:33;94445.81;;;13.09;100.00
12077;BME280;12420;42.676;23.262;2023-05-23T03:54:00;94454.44;;;12.97;100.00
12077;BME280;12420;42.676;23.262;2023-05-23T03:56:27;94460.03;;;13.05;100.00
12077;BME280;12420;42.676;23.262;2023-05-23T03:58:54;94460.22;;;13.07;100.00
12077;BME280;12420;42.676;23.262;2023-05-23T04:01:21;94469.41;;;12.94;100.00
12077;BME280;12420;42.676;23.262;2023-05-23T04:03:50;94449.25;;;12.94;100.00
12077;BME280;12420;42.676;23.262;2023-05-23T04:06:17;94458.00;;;13.06;100.00
12077;BME280;12420;42.676;23.262;2023-05-23T04:08:44;94448.78;;;13.11;100.00
12077;BME280;12420;42.676;23.262;2023-05-23T04:11:11;94464.72;;;13.10;100.00
12077;BME280;12420;42.676;23.262;2023-05-23T04:13:38;94453.59;;;13.10;100.00
12077;BME280;12420;42.676;23.262;2023-05-23T04:16:07;94462.47;;;13.09;100.00
12077;BME280;12420;42.676;23.262;2023-05-23T04:18:33;94465.50;;;13.18;100.00
12077;BME280;12420;42.676;23.262;2023-05-23T04:21:04;94461.47;;;13.27;100.00
12077;BME280;12420;42.676;23.262;2023-05-23T04:23:31;94448.50;;;13.30;100.00
12077;BME280;12420;42.676;23.262;2023-05-23T04:25:58;94451.50;;;13.32;100.00
12077;BME280;12420;42.676;23.262;2023-05-23T04:28:25;94434.81;;;13.32;100.00
12077;BME280;12420;42.676;23.262;2023-05-23T04:30:53;94448.56;;;13.45;100.00
12077;BME280;12420;42.676;23.262;2023-05-23T04:33:20;94443.22;;;13.47;100.00
12077;BME280;12420;42.676;23.262;2023-05-23T04:35:47;94447.06;;;13.36;100.00
12077;BME280;12420;42.676;23.262;2023-05-23T04:38:15;94454.25;;;13.32;100.00
12077;BME280;12420;42.676;23.262;2023-05-23T04:40:42;94449.19;;;13.22;100.00
12077;BME280;12420;42.676;23.262;2023-05-23T04:43:08;94452.03;;;13.30;100.00
12077;BME280;12420;42.676;23.262;2023-05-23T04:45:38;94455.56;;;13.31;100.00
12077;BME280;12420;42.676;23.262;2023-05-23T04:48:05;94456.88;;;13.37;100.00
12077;BME280;12420;42.676;23.262;2023-05-23T04:50:32;94458.44;;;13.17;100.00
12077;BME280;12420;42.676;23.262;2023-05-23T04:53:01;94464.75;;;13.18;100.00
12077;BME280;12420;42.676;23.262;2023-05-23T04:55:30;94474.94;;;13.15;100.00
12077;BME280;12420;42.676;23.262;2023-05-23T04:57:56;94475.72;;;12.95;100.00
12077;BME280;12420;42.676;23.262;2023-05-23T05:00:26;94468.22;;;12.82;100.00
12077;BME280;12420;42.676;23.262;2023-05-23T05:02:54;94477.81;;;13.02;100.00
12077;BME280;12420;42.676;23.262;2023-05-23T05:05:21;94473.59;;;13.09;100.00
12077;BME280;12420;42.676;23.262;2023-05-23T05:07:47;94472.28;;;13.10;100.00
12077;BME280;12420;42.676;23.262;2023-05-23T05:10:14;94471.31;;;12.99;100.00
12077;BME280;12420;42.676;23.262;2023-05-23T05:12:44;94480.25;;;13.06;100.00
12077;BME280;12420;42.676;23.262;2023-05-23T05:15:11;94465.03;;;13.07;100.00
12077;BME280;12420;42.676;23.262;2023-05-23T05:17:38;94491.34;;;13.34;100.00
12077;BME280;12420;42.676;23.262;2023-05-23T05:20:06;94482.66;;;13.45;100.00
12077;BME280;12420;42.676;23.262;2023-05-23T05:22:33;94484.38;;;13.49;100.00
12077;BME280;12420;42.676;23.262;2023-05-23T05:25:01;94484.75;;;13.53;100.00
12077;BME280;12420;42.676;23.262;2023-05-23T05:27:28;94485.69;;;13.63;100.00
12077;BME280;12420;42.676;23.262;2023-05-23T05:29:56;94477.94;;;13.69;100.00
12077;BME280;12420;42.676;23.262;2023-05-23T05:32:28;94481.66;;;13.72;100.00
12077;BME280;12420;42.676;23.262;2023-05-23T05:34:58;94479.06;;;13.74;100.00
12077;BME280;12420;42.676;23.262;2023-05-23T05:37:25;94464.59;;;13.67;100.00
12077;BME280;12420;42.676;23.262;2023-05-23T05:39:51;94486.88;;;13.83;100.00
12077;BME280;12420;42.676;23.262;2023-05-23T05:42:19;94491.34;;;13.94;100.00
12077;BME280;12420;42.676;23.262;2023-05-23T05:44:45;94481.16;;;13.96;100.00
12077;BME280;12420;42.676;23.262;2023-05-23T05:47:14;94492.31;;;14.04;100.00
12077;BME280;12420;42.676;23.262;2023-05-23T05:49:40;94491.78;;;14.13;100.00
12077;BME280;12420;42.676;23.262;2023-05-23T05:52:07;94500.50;;;14.17;100.00
12077;BME280;12420;42.676;23.262;2023-05-23T05:54:38;94488.25;;;14.05;100.00
12077;BME280;12420;42.676;23.262;2023-05-23T05:57:09;94437.91;;;13.80;100.00
12077;BME280;12420;42.676;23.262;2023-05-23T05:59:36;94502.72;;;14.26;100.00
12077;BME280;12420;42.676;23.262;2023-05-23T06:02:03;94451.13;;;14.02;100.00
12077;BME280;12420;42.676;23.262;2023-05-23T06:04:31;94497.38;;;14.44;100.00
12077;BME280;12420;42.676;23.262;2023-05-23T06:06:58;94498.13;;;14.67;100.00
12077;BME280;12420;42.676;23.262;2023-05-23T06:09:25;94501.84;;;14.77;100.00
12077;BME280;12420;42.676;23.262;2023-05-23T06:11:51;94498.50;;;14.87;100.00
12077;BME280;12420;42.676;23.262;2023-05-23T06:14:18;94500.88;;;15.13;100.00
12077;BME280;12420;42.676;23.262;2023-05-23T06:16:45;94476.53;;;15.14;100.00
12077;BME280;12420;42.676;23.262;2023-05-23T06:19:12;94502.13;;;15.35;100.00
12077;BME280;12420;42.676;23.262;2023-05-23T06:21:40;94494.72;;;15.23;100.00
12077;BME280;12420;42.676;23.262;2023-05-23T06:24:06;94498.25;;;15.23;100.00
12077;BME280;12420;42.676;23.262;2023-05-23T06:26:33;94500.69;;;15.27;100.00
12077;BME280;12420;42.676;23.262;2023-05-23T06:29:02;94503.84;;;15.15;100.00
12077;BME280;12420;42.676;23.262;2023-05-23T06:31:28;94467.28;;;14.81;100.00
12077;BME280;12420;42.676;23.262;2023-05-23T06:33:55;94504.56;;;15.24;100.00
12077;BME280;12420;42.676;23.262;2023-05-23T06:36:22;94511.78;;;15.42;100.00
12077;BME280;12420;42.676;23.262;2023-05-23T06:38:50;94503.72;;;15.54;100.00
12077;BME280;12420;42.676;23.262;2023-05-23T06:41:16;94502.41;;;15.62;100.00
12077;BME280;12420;42.676;23.262;2023-05-23T06:43:43;94505.50;;;15.82;100.00
12077;BME280;12420;42.676;23.262;2023-05-23T06:46:10;94494.19;;;15.80;100.00
12077;BME280;12420;42.676;23.262;2023-05-23T06:48:37;94491.47;;;15.97;100.00
12077;BME280;12420;42.676;23.262;2023-05-23T06:51:03;94484.19;;;16.02;100.00
12077;BME280;12420;42.676;23.262;2023-05-23T06:53:30;94498.09;;;16.10;100.00
12077;BME280;12420;42.676;23.262;2023-05-23T06:56:12;94485.00;;;16.20;100.00
12077;BME280;12420;42.676;23.262;2023-05-23T06:58:39;94497.91;;;16.40;100.00
12077;BME280;12420;42.676;23.262;2023-05-23T07:01:07;94495.19;;;16.58;100.00
12077;BME280;12420;42.676;23.262;2023-05-23T07:03:36;94492.84;;;16.71;100.00
12077;BME280;12420;42.676;23.262;2023-05-23T07:06:07;94477.50;;;16.80;100.00
12077;BME280;12420;42.676;23.262;2023-05-23T07:08:34;94495.47;;;17.12;100.00
12077;BME280;12420;42.676;23.262;2023-05-23T07:11:01;94492.47;;;17.18;100.00
12077;BME280;12420;42.676;23.262;2023-05-23T07:13:30;94489.25;;;17.39;100.00
12077;BME280;12420;42.676;23.262;2023-05-23T07:15:57;94460.28;;;17.26;100.00
12077;BME280;12420;42.676;23.262;2023-05-23T07:18:24;94430.03;;;16.98;100.00
12077;BME280;12420;42.676;23.262;2023-05-23T07:20:51;94476.09;;;17.31;100.00
12077;BME280;12420;42.676;23.262;2023-05-23T07:23:17;94427.97;;;17.16;100.00
12077;BME280;12420;42.676;23.262;2023-05-23T07:25:44;94461.81;;;17.54;100.00
12077;BME280;12420;42.676;23.262;2023-05-23T07:28:11;94476.06;;;17.84;100.00
12077;BME280;12420;42.676;23.262;2023-05-23T07:30:40;94467.41;;;17.89;100.00
12077;BME280;12420;42.676;23.262;2023-05-23T07:33:07;94480.41;;;17.94;100.00
12077;BME280;12420;42.676;23.262;2023-05-23T07:35:33;94473.97;;;18.02;100.00
12077;BME280;12420;42.676;23.262;2023-05-23T07:38:00;94488.66;;;18.19;100.00
12077;BME280;12420;42.676;23.262;2023-05-23T07:40:27;94473.78;;;18.27;100.00
12077;BME280;12420;42.676;23.262;2023-05-23T07:42:53;94463.22;;;18.35;100.00
12077;BME280;12420;42.676;23.262;2023-05-23T07:45:20;94466.47;;;18.41;100.00
12077;BME280;12420;42.676;23.262;2023-05-23T07:47:48;94467.53;;;18.46;100.00
12077;BME280;12420;42.676;23.262;2023-05-23T07:50:15;94471.38;;;18.50;100.00
12077;BME280;12420;42.676;23.262;2023-05-23T07:52:43;94464.00;;;18.45;100.00
12077;BME280;12420;42.676;23.262;2023-05-23T07:55:09;94462.13;;;18.57;100.00
12077;BME280;12420;42.676;23.262;2023-05-23T07:57:36;94468.50;;;18.68;100.00
12077;BME280;12420;42.676;23.262;2023-05-23T08:00:03;94450.50;;;18.71;100.00
12077;BME280;12420;42.676;23.262;2023-05-23T08:02:30;94444.66;;;18.86;100.00
12077;BME280;12420;42.676;23.262;2023-05-23T08:04:59;94464.31;;;19.05;100.00
12077;BME280;12420;42.676;23.262;2023-05-23T08:07:25;94460.19;;;19.06;100.00
12077;BME280;12420;42.676;23.262;2023-05-23T08:09:52;94455.03;;;19.13;100.00
12077;BME280;12420;42.676;23.262;2023-05-23T08:12:19;94462.28;;;19.25;100.00
12077;BME280;12420;42.676;23.262;2023-05-23T08:14:45;94456.09;;;19.37;100.00
12077;BME280;12420;42.676;23.262;2023-05-23T08:17:12;94456.38;;;19.12;100.00
12077;BME280;12420;42.676;23.262;2023-05-23T08:19:39;94456.78;;;18.98;100.00
12077;BME280;12420;42.676;23.262;2023-05-23T08:22:07;94460.78;;;19.15;100.00
12077;BME280;12420;42.676;23.262;2023-05-23T08:24:34;94459.63;;;19.37;100.00
12077;BME280;12420;42.676;23.262;2023-05-23T08:27:01;94461.72;;;19.46;100.00
12077;BME280;12420;42.676;23.262;2023-05-23T08:29:27;94465.97;;;19.47;100.00
12077;BME280;12420;42.676;23.262;2023-05-23T08:31:54;94464.50;;;19.56;100.00
12077;BME280;12420;42.676;23.262;2023-05-23T08:34:21;94461.41;;;19.52;100.00
12077;BME280;12420;42.676;23.262;2023-05-23T08:36:47;94461.84;;;19.58;100.00
12077;BME280;12420;42.676;23.262;2023-05-23T08:39:15;94459.91;;;19.61;100.00
12077;BME280;12420;42.676;23.262;2023-05-23T08:41:42;94453.25;;;19.66;100.00
12077;BME280;12420;42.676;23.262;2023-05-23T08:44:09;94454.78;;;19.67;100.00
12077;BME280;12420;42.676;23.262;2023-05-23T08:46:39;94454.00;;;19.76;100.00
12077;BME280;12420;42.676;23.262;2023-05-23T08:49:10;94458.75;;;19.73;100.00
12077;BME280;12420;42.676;23.262;2023-05-23T08:51:41;94451.78;;;19.84;100.00
12077;BME280;12420;42.676;23.262;2023-05-23T08:54:09;94419.91;;;19.70;100.00
12077;BME280;12420;42.676;23.262;2023-05-23T08:56:39;94450.88;;;19.91;100.00
12077;BME280;12420;42.676;23.262;2023-05-23T08:59:07;94453.53;;;19.99;100.00
12077;BME280;12420;42.676;23.262;2023-05-23T09:01:36;94440.81;;;20.08;100.00
12077;BME280;12420;42.676;23.262;2023-05-23T09:04:05;94448.88;;;20.23;100.00
12077;BME280;12420;42.676;23.262;2023-05-23T09:06:34;94441.16;;;20.33;100.00
12077;BME280;12420;42.676;23.262;2023-05-23T09:09:03;94389.44;;;19.76;100.00
12077;BME280;12420;42.676;23.262;2023-05-23T09:11:32;94451.34;;;20.38;100.00
12077;BME280;12420;42.676;23.262;2023-05-23T09:14:03;94446.56;;;20.51;100.00
12077;BME280;12420;42.676;23.262;2023-05-23T09:16:32;94444.06;;;20.45;89.98
12077;BME280;12420;42.676;23.262;2023-05-23T09:19:09;94448.91;;;20.64;88.74
12077;BME280;12420;42.676;23.262;2023-05-23T09:21:35;94440.47;;;20.64;75.96
12077;BME280;12420;42.676;23.262;2023-05-23T09:24:06;94413.41;;;20.59;77.18
12077;BME280;12420;42.676;23.262;2023-05-23T09:26:33;94430.72;;;20.87;80.15
12077;BME280;12420;42.676;23.262;2023-05-23T09:29:03;94434.59;;;21.03;82.96
12077;BME280;12420;42.676;23.262;2023-05-23T09:31:35;94425.63;;;21.16;77.80
12077;BME280;12420;42.676;23.262;2023-05-23T09:34:02;94412.63;;;21.11;75.24
12077;BME280;12420;42.676;23.262;2023-05-23T09:36:32;94419.53;;;21.20;80.49
12077;BME280;12420;42.676;23.262;2023-05-23T09:39:04;94384.50;;;20.90;69.08
12077;BME280;12420;42.676;23.262;2023-05-23T09:41:32;94428.09;;;21.00;73.93
12077;BME280;12420;42.676;23.262;2023-05-23T09:44:04;94419.00;;;21.12;73.89
12077;BME280;12420;42.676;23.262;2023-05-23T09:46:36;94428.72;;;21.20;76.60
12077;BME280;12420;42.676;23.262;2023-05-23T09:49:18;94414.47;;;21.07;70.98
12077;BME280;12420;42.676;23.262;2023-05-23T09:51:59;94411.91;;;21.32;71.08
12077;BME280;12420;42.676;23.262;2023-05-23T09:54:35;94409.06;;;21.32;72.50
12077;BME280;12420;42.676;23.262;2023-05-23T09:57:09;94410.06;;;21.37;70.61
12077;BME280;12420;42.676;23.262;2023-05-23T09:59:38;94400.69;;;21.44;70.90
12077;BME280;12420;42.676;23.262;2023-05-23T10:02:10;94416.72;;;21.41;69.56
12077;BME280;12420;42.676;23.262;2023-05-23T10:04:38;94401.84;;;21.51;66.38
12077;BME280;12420;42.676;23.262;2023-05-23T10:07:11;94348.53;;;21.10;63.98
12077;BME280;12420;42.676;23.262;2023-05-23T10:09:41;94400.41;;;21.61;68.16
12077;BME280;12420;42.676;23.262;2023-05-23T10:12:41;94392.72;;;21.74;62.47
12077;BME280;12420;42.676;23.262;2023-05-23T10:15:13;94384.19;;;21.29;60.31
12077;BME280;12420;42.676;23.262;2023-05-23T10:17:58;94402.63;;;21.63;62.62
12077;BME280;12420;42.676;23.262;2023-05-23T10:20:29;94393.63;;;21.55;63.66
12077;BME280;12420;42.676;23.262;2023-05-23T10:22:59;94403.22;;;21.61;62.23
12077;BME280;12420;42.676;23.262;2023-05-23T10:25:27;94399.72;;;21.84;65.28
12077;BME280;12420;42.676;23.262;2023-05-23T10:27:55;94391.78;;;21.93;59.79
12077;BME280;12420;42.676;23.262;2023-05-23T10:30:26;94390.09;;;22.11;63.32
12077;BME280;12420;42.676;23.262;2023-05-23T10:32:55;94399.66;;;22.18;60.60
12077;BME280;12420;42.676;23.262;2023-05-23T10:35:34;94384.09;;;22.17;58.56
12077;BME280;12420;42.676;23.262;2023-05-23T10:38:07;94375.63;;;21.93;58.10
12077;BME280;12420;42.676;23.262;2023-05-23T10:40:47;94394.03;;;22.06;56.42
12077;BME280;12420;42.676;23.262;2023-05-23T10:43:21;94382.50;;;22.14;58.80
12077;BME280;12420;42.676;23.262;2023-05-23T10:45:51;94345.94;;;21.80;57.66
12077;BME280;12420;42.676;23.262;2023-05-23T10:48:31;94379.06;;;22.03;57.19
12077;BME280;12420;42.676;23.262;2023-05-23T10:51:04;94376.28;;;22.27;57.92
12077;BME280;12420;42.676;23.262;2023-05-23T10:53:33;94366.81;;;22.10;56.84
12077;BME280;12420;42.676;23.262;2023-05-23T10:56:03;94374.28;;;22.06;57.15
12077;BME280;12420;42.676;23.262;2023-05-23T10:58:31;94375.66;;;22.17;58.04
12077;BME280;12420;42.676;23.262;2023-05-23T11:00:59;94375.91;;;22.21;55.57
12077;BME280;12420;42.676;23.262;2023-05-23T11:03:33;94364.75;;;22.23;57.83
12077;BME280;12420;42.676;23.262;2023-05-23T11:06:00;94377.63;;;22.26;57.75
12077;BME280;12420;42.676;23.262;2023-05-23T11:08:36;94359.00;;;22.21;58.57
12077;BME280;12420;42.676;23.262;2023-05-23T11:11:04;94365.84;;;22.18;57.10
12077;BME280;12420;42.676;23.262;2023-05-23T11:13:54;94361.06;;;22.08;57.24
12077;BME280;12420;42.676;23.262;2023-05-23T11:16:25;94348.16;;;22.05;58.10
12077;BME280;12420;42.676;23.262;2023-05-23T11:19:21;94354.97;;;22.24;56.69
12077;BME280;12420;42.676;23.262;2023-05-23T11:21:52;94353.72;;;22.39;55.82
12077;BME280;12420;42.676;23.262;2023-05-23T11:24:19;94354.56;;;22.41;55.10
12077;BME280;12420;42.676;23.262;2023-05-23T11:26:53;94338.63;;;22.10;56.67
12077;BME280;12420;42.676;23.262;2023-05-23T11:29:25;94350.16;;;22.50;59.85
12077;BME280;12420;42.676;23.262;2023-05-23T11:31:53;94351.50;;;22.49;55.81
12077;BME280;12420;42.676;23.262;2023-05-23T11:34:21;94351.38;;;22.59;54.73
12077;BME280;12420;42.676;23.262;2023-05-23T11:36:52;94345.13;;;22.72;54.62
12077;BME280;12420;42.676;23.262;2023-05-23T11:39:19;94339.34;;;22.70;53.59
12077;BME280;12420;42.676;23.262;2023-05-23T11:41:57;94346.34;;;22.69;51.95
12077;BME280;12420;42.676;23.262;2023-05-23T11:44:24;94341.81;;;22.64;53.31
12077;BME280;12420;42.676;23.262;2023-05-23T11:47:00;94340.94;;;22.73;52.50
12077;BME280;12420;42.676;23.262;2023-05-23T11:49:29;94330.38;;;22.73;54.63
12077;BME280;12420;42.676;23.262;2023-05-23T11:51:57;94309.56;;;22.55;52.74
12077;BME280;12420;42.676;23.262;2023-05-23T11:54:23;94342.66;;;22.78;52.55
12077;BME280;12420;42.676;23.262;2023-05-23T11:56:51;94329.25;;;22.90;51.04
12077;BME280;12420;42.676;23.262;2023-05-23T11:59:18;94315.22;;;23.04;54.41
12077;BME280;12420;42.676;23.262;2023-05-23T12:01:45;94321.06;;;23.20;53.08
12077;BME280;12420;42.676;23.262;2023-05-23T12:04:12;94323.53;;;23.14;50.96
12077;BME280;12420;42.676;23.262;2023-05-23T12:06:45;94331.34;;;22.78;50.76
12077;BME280;12420;42.676;23.262;2023-05-23T12:09:13;94324.53;;;22.58;51.66
12077;BME280;12420;42.676;23.262;2023-05-23T12:11:41;94316.81;;;22.58;50.83
12077;BME280;12420;42.676;23.262;2023-05-23T12:14:08;94318.94;;;22.95;52.49
12077;BME280;12420;42.676;23.262;2023-05-23T12:16:35;94305.88;;;23.13;52.74
12077;BME280;12420;42.676;23.262;2023-05-23T12:19:03;94297.31;;;23.00;54.43
12077;BME280;12420;42.676;23.262;2023-05-23T12:21:43;94301.94;;;23.18;55.26
12077;BME280;12420;42.676;23.262;2023-05-23T12:24:14;94291.31;;;23.31;52.28
12077;BME280;12420;42.676;23.262;2023-05-23T12:26:52;94299.00;;;23.56;52.84
12077;BME280;12420;42.676;23.262;2023-05-23T12:29:20;94273.03;;;23.46;53.27
12077;BME280;12420;42.676;23.262;2023-05-23T12:31:48;94291.69;;;23.76;50.91
12077;BME280;12420;42.676;23.262;2023-05-23T12:34:15;94295.91;;;23.89;51.17
12077;BME280;12420;42.676;23.262;2023-05-23T12:36:47;94300.19;;;24.04;48.26
12077;BME280;12420;42.676;23.262;2023-05-23T12:39:14;94292.25;;;23.61;45.86
12077;BME280;12420;42.676;23.262;2023-05-23T12:41:41;94288.81;;;23.37;46.78
12077;BME280;12420;42.676;23.262;2023-05-23T12:44:09;94265.38;;;23.09;45.63
12077;BME280;12420;42.676;23.262;2023-05-23T12:46:38;94288.09;;;23.36;50.36
12077;BME280;12420;42.676;23.262;2023-05-23T12:49:05;94280.59;;;23.55;50.26
12077;BME280;12420;42.676;23.262;2023-05-23T12:51:32;94277.19;;;23.70;50.22